Time;durP1;ratioP1;P1;durP2;ratioP2;P2;SDS_P1;SDS_P2;PMS_P1;PMS_P2;Temp;Humidity;BMP_temperature;BMP_pressure;BME280_temperature;BME280_humidity;BME280_pressure;Samples;Min_cycle;Max_cycle;Signal;HPM_P1;HPM_P2
2024/02/15 00:00:38;;;;;;;;;;;;;;;10.82;52.33;101013.97;4913139;28;98096;-68
2024/02/15 00:03:07;;;;;;;;;;;;;;;10.81;52.16;101013.16;4927090;28;99053;-68
2024/02/15 00:05:36;;;;;;;;;;;;;;;10.81;52.33;101015.03;4924061;28;97886;-65
2024/02/15 00:08:09;;;;;;;;;;;;;;;10.79;52.05;101009.88;4922660;28;98979;-65
2024/02/15 00:10:35;;;;;;;;;;;;;;;10.79;52.03;101006.38;4925694;28;98314;-65
2024/02/15 00:13:02;;;;;;;;;;;;;;;10.78;52.28;101005.56;4957349;28;98441;-68
2024/02/15 00:15:28;;;;;;;;;;;;;;;10.77;52.02;101006.63;4923503;28;99751;-68
2024/02/15 00:17:55;;;;;;;;;;;;;;;10.78;52.02;100999.34;4943382;28;98431;-68
2024/02/15 00:20:23;;;;;;;;;;;;;;;10.77;52.22;101006.63;4924118;28;98134;-65
2024/02/15 00:22:50;;;;;;;;;;;;;;;10.77;51.95;101008.53;4922535;28;98543;-66
2024/02/15 00:25:19;;;;;;;;;;;;;;;10.76;51.95;101005.00;4914452;28;98167;-65
2024/02/15 00:27:46;;;;;;;;;;;;;;;10.76;52.31;101004.19;4928016;28;98181;-68
2024/02/15 00:30:13;;;;;;;;;;;;;;;10.76;52.20;101005.00;4923657;28;98133;-64
2024/02/15 00:32:40;;;;;;;;;;;;;;;10.76;51.99;100998.78;4909348;28;100040;-64
2024/02/15 00:35:09;;;;;;;;;;;;;;;10.76;52.23;100994.19;4911827;28;98705;-68
2024/02/15 00:37:35;;;;;;;;;;;;;;;10.76;52.48;100996.09;4922227;28;98446;-68
2024/02/15 00:40:05;;;;;;;;;;;;;;;10.76;52.32;100988.81;4920218;28;98222;-64
2024/02/15 00:42:34;;;;;;;;;;;;;;;10.77;51.94;100995.03;4927622;28;98186;-68
2024/02/15 00:45:02;;;;;;;;;;;;;;;10.77;51.98;100990.47;4913899;28;98684;-64
2024/02/15 00:47:28;;;;;;;;;;;;;;;10.77;52.22;100979.69;4942360;28;98705;-68
2024/02/15 00:49:55;;;;;;;;;;;;;;;10.77;52.19;100981.56;4911184;28;98173;-68
2024/02/15 00:52:25;;;;;;;;;;;;;;;10.77;51.85;100987.75;4914856;28;99744;-65
2024/02/15 00:54:52;;;;;;;;;;;;;;;10.78;52.18;100991.28;4923824;28;98285;-68
2024/02/15 00:57:18;;;;;;;;;;;;;;;10.77;52.18;100987.75;4942535;28;98090;-68
2024/02/15 00:59:44;;;;;;;;;;;;;;;10.78;52.29;100988.56;4908404;28;98558;-64
2024/02/15 01:02:12;;;;;;;;;;;;;;;10.79;52.11;100987.50;4937069;28;98237;-68
2024/02/15 01:04:39;;;;;;;;;;;;;;;10.79;52.08;100982.09;4914255;28;99906;-65
2024/02/15 01:07:05;;;;;;;;;;;;;;;10.80;52.20;100983.72;4961316;28;99574;-68
2024/02/15 01:09:32;;;;;;;;;;;;;;;10.79;52.26;100984.81;4926018;28;98184;-68
2024/02/15 01:11:58;;;;;;;;;;;;;;;10.80;51.99;100983.72;4924919;28;99516;-68
2024/02/15 01:14:29;;;;;;;;;;;;;;;10.79;52.13;100984.81;4923178;28;100438;-65
2024/02/15 01:16:56;;;;;;;;;;;;;;;10.80;52.27;100989.91;4909509;28;99208;-68
2024/02/15 01:19:23;;;;;;;;;;;;;;;10.81;52.17;100985.38;4938284;28;98857;-64
2024/02/15 01:21:50;;;;;;;;;;;;;;;10.81;52.01;100988.06;4946794;28;98628;-64
2024/02/15 01:24:16;;;;;;;;;;;;;;;10.81;52.17;100982.69;4915805;28;97972;-65
2024/02/15 01:26:43;;;;;;;;;;;;;;;10.82;52.23;100987.00;4925777;28;98574;-64
2024/02/15 01:29:12;;;;;;;;;;;;;;;10.82;52.17;100989.69;4913046;28;98087;-68
2024/02/15 01:31:38;;;;;;;;;;;;;;;10.81;52.42;100991.56;4906648;28;99121;-68
2024/02/15 01:34:05;;;;;;;;;;;;;;;10.82;52.07;100985.09;4925650;28;98010;-65
2024/02/15 01:36:32;;;;;;;;;;;;;;;10.83;52.40;100985.91;4911343;28;98208;-68
2024/02/15 01:38:58;;;;;;;;;;;;;;;10.82;51.99;100987.81;4907027;28;99833;-65
2024/02/15 01:41:25;;;;;;;;;;;;;;;10.83;52.17;100988.59;4944076;28;98093;-66
2024/02/15 01:43:52;;;;;;;;;;;;;;;10.84;52.23;100989.41;4926796;28;102917;-68
2024/02/15 01:46:18;;;;;;;;;;;;;;;10.84;52.30;100986.72;4923671;28;98144;-65
2024/02/15 01:48:44;;;;;;;;;;;;;;;10.84;52.07;100986.72;4921775;28;97987;-68
2024/02/15 01:51:13;;;;;;;;;;;;;;;10.84;52.04;100990.22;4918453;28;98376;-65
2024/02/15 01:53:40;;;;;;;;;;;;;;;10.84;52.09;100987.53;4924846;28;98005;-68
2024/02/15 01:56:07;;;;;;;;;;;;;;;10.84;52.21;100976.75;4923703;28;100307;-68
2024/02/15 01:58:35;;;;;;;;;;;;;;;10.84;52.01;100984.84;4919673;28;98212;-65
2024/02/15 02:01:02;;;;;;;;;;;;;;;10.84;52.49;100982.13;4910783;28;99621;-65
2024/02/15 02:03:30;;;;;;;;;;;;;;;10.84;52.36;100971.34;4943417;28;99627;-65
2024/02/15 02:05:59;;;;;;;;;;;;;;;10.85;52.17;100973.00;4919825;28;98388;-65
2024/02/15 02:08:25;;;;;;;;;;;;;;;10.84;52.38;100970.53;4938271;28;98047;-65
2024/02/15 02:10:53;;;;;;;;;;;;;;;10.84;52.40;100962.44;4910955;28;98136;-64
2024/02/15 02:13:20;;;;;;;;;;;;;;;10.85;52.18;100966.78;4924125;28;99134;-68
2024/02/15 02:15:46;;;;;;;;;;;;;;;10.85;52.13;100970.31;4908832;28;98243;-68
2024/02/15 02:18:13;;;;;;;;;;;;;;;10.84;52.24;100965.97;4915266;27;98106;-65
2024/02/15 02:20:40;;;;;;;;;;;;;;;10.85;52.50;100958.72;4924396;28;98299;-65
2024/02/15 02:23:18;;;;;;;;;;;;;;;10.85;52.24;100967.59;4912943;28;98341;-68
2024/02/15 02:25:44;;;;;;;;;;;;;;;10.85;52.28;100964.09;4925727;28;98289;-68
2024/02/15 02:28:11;;;;;;;;;;;;;;;10.84;52.00;100957.88;4908344;28;99114;-65
2024/02/15 02:30:41;;;;;;;;;;;;;;;10.85;52.40;100956.81;4923138;28;98432;-68
2024/02/15 02:33:11;;;;;;;;;;;;;;;10.84;52.36;100963.25;4918968;28;98303;-68
2024/02/15 02:35:39;;;;;;;;;;;;;;;10.85;52.09;100956.00;4924952;28;98368;-69
2024/02/15 02:38:08;;;;;;;;;;;;;;;10.86;52.15;100963.03;4906758;28;98709;-65
2024/02/15 02:40:35;;;;;;;;;;;;;;;10.86;52.35;100955.75;4914832;28;98248;-64
2024/02/15 02:43:02;;;;;;;;;;;;;;;10.86;52.13;100954.94;4921714;28;98042;-65
2024/02/15 02:45:28;;;;;;;;;;;;;;;10.86;52.32;100949.53;4938147;28;98055;-68
2024/02/15 02:47:56;;;;;;;;;;;;;;;10.85;52.14;100961.41;4922275;28;98081;-65
2024/02/15 02:50:23;;;;;;;;;;;;;;;10.85;52.22;100958.72;4924286;28;99376;-65
2024/02/15 02:52:49;;;;;;;;;;;;;;;10.86;52.20;100955.75;4909418;28;98243;-65
2024/02/15 02:55:20;;;;;;;;;;;;;;;10.85;52.32;100958.72;4927210;28;99481;-65
2024/02/15 02:57:46;;;;;;;;;;;;;;;10.86;52.31;100963.84;4935722;28;103182;-68
2024/02/15 03:00:15;;;;;;;;;;;;;;;10.86;52.27;100960.31;4911226;28;97910;-65
2024/02/15 03:02:43;;;;;;;;;;;;;;;10.85;52.26;100956.00;4905241;28;98217;-66
2024/02/15 03:05:11;;;;;;;;;;;;;;;10.86;52.12;100960.31;4924854;28;99588;-65
2024/02/15 03:07:38;;;;;;;;;;;;;;;10.86;52.21;100966.53;4911190;28;99353;-65
2024/02/15 03:10:04;;;;;;;;;;;;;;;10.87;52.42;100964.63;4919753;28;98213;-65
2024/02/15 03:12:31;;;;;;;;;;;;;;;10.86;52.47;100958.44;4928382;28;98867;-68
2024/02/15 03:14:58;;;;;;;;;;;;;;;10.86;52.12;100963.03;4914598;28;99681;-65
2024/02/15 03:17:27;;;;;;;;;;;;;;;10.86;52.11;100961.13;4911007;28;98926;-65
2024/02/15 03:19:55;;;;;;;;;;;;;;;10.87;52.29;100962.75;4942998;28;98922;-65
2024/02/15 03:22:24;;;;;;;;;;;;;;;10.84;52.13;100965.97;4930566;28;98468;-65
2024/02/15 03:24:52;;;;;;;;;;;;;;;10.84;52.18;100957.06;4921653;28;98842;-68
2024/02/15 03:27:22;;;;;;;;;;;;;;;10.82;52.42;100957.31;4913963;28;98419;-65
2024/02/15 03:29:49;;;;;;;;;;;;;;;10.80;52.27;100957.56;4912541;28;99874;-64
2024/02/15 03:32:16;;;;;;;;;;;;;;;10.78;52.06;100956.22;4924277;28;97975;-65
2024/02/15 03:34:46;;;;;;;;;;;;;;;10.76;52.19;100953.75;4903380;28;98058;-65
2024/02/15 03:37:13;;;;;;;;;;;;;;;10.76;52.16;100958.34;4925279;28;97958;-65
2024/02/15 03:39:39;;;;;;;;;;;;;;;10.76;52.27;100952.94;4910751;28;98101;-65
2024/02/15 03:42:06;;;;;;;;;;;;;;;10.74;52.30;100969.41;4927444;28;98487;-64
2024/02/15 03:44:33;;;;;;;;;;;;;;;10.73;52.46;100970.47;4912069;28;98041;-68
2024/02/15 03:47:00;;;;;;;;;;;;;;;10.73;52.40;100966.97;4917271;28;98488;-68
2024/02/15 03:49:26;;;;;;;;;;;;;;;10.73;52.48;100965.06;4946397;28;98336;-68
2024/02/15 03:51:54;;;;;;;;;;;;;;;10.73;52.46;100972.34;4917959;28;98353;-68
2024/02/15 03:54:23;;;;;;;;;;;;;;;10.73;52.35;100972.34;4914914;28;98174;-68
2024/02/15 03:56:54;;;;;;;;;;;;;;;10.72;52.48;100968.81;4922571;28;99204;-65
2024/02/15 03:59:26;;;;;;;;;;;;;;;10.72;52.28;100968.00;4925429;28;98401;-68
2024/02/15 04:01:53;;;;;;;;;;;;;;;10.72;52.18;100968.00;4922202;28;98260;-68
2024/02/15 04:04:23;;;;;;;;;;;;;;;10.71;52.41;100977.97;4925720;28;98029;-68
2024/02/15 04:06:51;;;;;;;;;;;;;;;10.71;52.44;100971.78;4941046;28;98036;-65
2024/02/15 04:09:20;;;;;;;;;;;;;;;10.71;52.29;100971.78;4918921;28;100403;-65
2024/02/15 04:11:52;;;;;;;;;;;;;;;10.69;52.32;100971.22;4902870;28;97958;-68
2024/02/15 04:14:19;;;;;;;;;;;;;;;10.70;52.49;100984.47;4912215;28;98417;-69
2024/02/15 04:16:47;;;;;;;;;;;;;;;10.70;52.36;100979.06;4924795;28;98380;-66
2024/02/15 04:19:19;;;;;;;;;;;;;;;10.69;52.26;100979.31;4946072;28;98157;-65
2024/02/15 04:21:50;;;;;;;;;;;;;;;10.69;52.16;100972.06;4911337;28;98352;-65
2024/02/15 04:24:20;;;;;;;;;;;;;;;10.69;52.43;100965.81;4918335;28;98444;-65
2024/02/15 04:26:48;;;;;;;;;;;;;;;10.68;52.41;100970.41;4925745;28;98407;-68
2024/02/15 04:29:17;;;;;;;;;;;;;;;10.69;52.26;100972.06;4924583;28;100052;-69
2024/02/15 04:31:44;;;;;;;;;;;;;;;10.70;52.18;100978.25;4928259;28;97930;-69
2024/02/15 04:34:11;;;;;;;;;;;;;;;10.69;52.29;100973.91;4911933;28;99434;-65
2024/02/15 04:36:38;;;;;;;;;;;;;;;10.68;52.28;100973.09;4904974;28;98711;-69
2024/02/15 04:39:06;;;;;;;;;;;;;;;10.68;52.35;100977.69;4940105;28;98267;-65
2024/02/15 04:41:35;;;;;;;;;;;;;;;10.69;52.27;100974.75;4908069;28;99138;-69
2024/02/15 04:44:05;;;;;;;;;;;;;;;10.68;52.12;100978.50;4906020;28;98210;-65
2024/02/15 04:46:31;;;;;;;;;;;;;;;10.68;52.41;100975.78;4930198;28;98492;-68
2024/02/15 04:49:01;;;;;;;;;;;;;;;10.69;52.09;100976.59;4924353;28;98306;-68
2024/02/15 04:51:28;;;;;;;;;;;;;;;10.69;52.47;100982.00;4922919;28;98123;-68
2024/02/15 04:53:57;;;;;;;;;;;;;;;10.69;52.47;100982.00;4906637;28;97923;-65
2024/02/15 04:56:24;;;;;;;;;;;;;;;10.68;52.30;100975.78;4946497;28;98202;-65
2024/02/15 04:58:51;;;;;;;;;;;;;;;10.68;52.37;100973.09;4912380;28;98289;-65
2024/02/15 05:01:18;;;;;;;;;;;;;;;10.68;52.48;100972.28;4923779;28;98224;-68
2024/02/15 05:03:44;;;;;;;;;;;;;;;10.69;52.20;100987.38;4906427;28;101735;-69
2024/02/15 05:06:12;;;;;;;;;;;;;;;10.69;52.45;100976.59;4923127;28;98152;-65
2024/02/15 05:08:43;;;;;;;;;;;;;;;10.69;52.16;100980.13;4923978;28;98018;-69
2024/02/15 05:11:22;;;;;;;;;;;;;;;10.69;52.22;100984.69;4927765;28;100893;-65
2024/02/15 05:13:51;;;;;;;;;;;;;;;10.69;52.40;100987.38;4907232;28;98198;-66
2024/02/15 05:16:22;;;;;;;;;;;;;;;10.67;52.42;100987.66;4929371;28;98275;-65
2024/02/15 05:18:49;;;;;;;;;;;;;;;10.69;52.12;100988.22;4914279;28;97859;-69
2024/02/15 05:21:15;;;;;;;;;;;;;;;10.69;52.27;100992.78;4914670;28;98225;-69
2024/02/15 05:23:43;;;;;;;;;;;;;;;10.68;52.29;100983.88;4927714;28;98163;-69
2024/02/15 05:26:10;;;;;;;;;;;;;;;10.68;52.33;100994.66;4908561;28;98786;-69
2024/02/15 05:28:37;;;;;;;;;;;;;;;10.69;52.26;100992.78;4921249;28;98197;-69
2024/02/15 05:31:25;;;;;;;;;;;;;;;10.69;52.25;100996.31;4906750;28;100231;-65
2024/02/15 05:33:51;;;;;;;;;;;;;;;10.70;52.27;100991.75;4912360;28;99745;-66
2024/02/15 05:36:22;;;;;;;;;;;;;;;10.69;52.11;100990.09;4925628;28;98213;-69
2024/02/15 05:38:52;;;;;;;;;;;;;;;10.70;52.11;100989.84;4944657;28;98217;-66
2024/02/15 05:41:20;;;;;;;;;;;;;;;10.70;52.41;100991.75;4911085;28;98335;-66
2024/02/15 05:43:53;;;;;;;;;;;;;;;10.70;52.44;100989.03;4910141;28;99596;-66
2024/02/15 05:46:23;;;;;;;;;;;;;;;10.71;52.57;100987.97;4913776;28;101834;-69
2024/02/15 05:48:53;;;;;;;;;;;;;;;10.69;52.59;100977.44;4921056;28;98680;-65
2024/02/15 05:51:19;;;;;;;;;;;;;;;10.70;52.14;100984.47;4942860;28;100415;-69
2024/02/15 05:53:46;;;;;;;;;;;;;;;10.71;52.19;100985.25;4911441;28;98146;-69
2024/02/15 05:56:14;;;;;;;;;;;;;;;10.70;52.57;100981.75;4925992;28;98082;-65
2024/02/15 05:58:41;;;;;;;;;;;;;;;10.69;52.28;100985.53;4925963;28;98238;-71
2024/02/15 06:01:11;;;;;;;;;;;;;;;10.73;52.38;100988.53;4912262;28;98061;-65
2024/02/15 06:03:40;;;;;;;;;;;;;;;10.79;52.36;100988.31;4926311;28;98254;-65
2024/02/15 06:06:06;;;;;;;;;;;;;;;10.87;52.29;101002.41;4918918;28;98045;-65
2024/02/15 06:08:39;;;;;;;;;;;;;;;10.92;52.49;100997.84;4924524;28;99970;-69
2024/02/15 06:11:05;;;;;;;;;;;;;;;10.97;52.49;100992.53;4939018;28;99504;-65
2024/02/15 06:13:31;;;;;;;;;;;;;;;11.02;52.39;100999.84;4949722;28;97873;-69
2024/02/15 06:15:59;;;;;;;;;;;;;;;11.03;52.47;101006.84;4909993;28;97817;-65
2024/02/15 06:18:29;;;;;;;;;;;;;;;11.07;52.56;101005.25;4893459;28;98039;-68
2024/02/15 06:21:02;;;;;;;;;;;;;;;11.09;52.45;101010.41;4916574;28;98229;-65
2024/02/15 06:23:30;;;;;;;;;;;;;;;11.12;52.56;101015.28;4903555;28;99866;-65
2024/02/15 06:26:02;;;;;;;;;;;;;;;11.13;52.32;101014.22;4904875;28;98304;-65
2024/02/15 06:39:45;;;;;;;;;;;;;;;11.20;52.48;101007.56;4928819;28;98315;-65
2024/02/15 06:42:15;;;;;;;;;;;;;;;11.22;52.46;101018.06;4910139;28;98227;-69
2024/02/15 06:44:42;;;;;;;;;;;;;;;11.23;52.28;101017.81;4912597;28;98090;-65
2024/02/15 06:47:10;;;;;;;;;;;;;;;11.26;52.15;101016.47;4932612;28;98384;-65
2024/02/15 06:49:39;;;;;;;;;;;;;;;11.28;52.50;101017.06;4928860;28;98202;-65
2024/02/15 06:52:07;;;;;;;;;;;;;;;11.28;52.47;101023.25;4902712;28;101979;-69
2024/02/15 06:54:35;;;;;;;;;;;;;;;11.31;52.40;101021.91;4917762;28;98009;-65
2024/02/15 06:57:02;;;;;;;;;;;;;;;11.30;52.42;101013.00;4902943;28;99385;-65
2024/02/15 06:59:29;;;;;;;;;;;;;;;11.37;52.29;101020.06;4923832;28;98412;-65
2024/02/15 07:01:56;;;;;;;;;;;;;;;11.39;52.32;101024.13;4930475;28;100958;-65
2024/02/15 07:04:25;;;;;;;;;;;;;;;11.40;52.34;101019.56;4914359;28;97968;-66
2024/02/15 07:06:53;;;;;;;;;;;;;;;11.41;52.33;101029.28;4916702;28;98294;-68
2024/02/15 07:09:21;;;;;;;;;;;;;;;11.42;52.27;101025.50;4919280;28;98739;-65
2024/02/15 07:11:47;;;;;;;;;;;;;;;11.41;52.39;101029.28;4906094;28;99713;-68
2024/02/15 07:14:15;;;;;;;;;;;;;;;11.42;52.52;101020.91;4917982;28;98891;-65
2024/02/15 07:16:47;;;;;;;;;;;;;;;11.43;52.51;101030.63;4925073;28;98246;-68
2024/02/15 07:19:15;;;;;;;;;;;;;;;11.46;52.42;101029.31;4924480;28;98424;-65
2024/02/15 07:21:42;;;;;;;;;;;;;;;11.47;52.34;101020.13;4904780;28;98031;-65
2024/02/15 07:24:11;;;;;;;;;;;;;;;11.49;52.32;101029.59;4917574;28;98425;-65
2024/02/15 07:26:37;;;;;;;;;;;;;;;11.50;52.33;101025.03;4922524;28;98113;-68
2024/02/15 07:29:07;;;;;;;;;;;;;;;11.50;52.26;101028.53;4904875;28;98258;-68
2024/02/15 07:31:34;;;;;;;;;;;;;;;11.52;52.39;101025.59;4920820;28;98202;-68
2024/02/15 07:34:00;;;;;;;;;;;;;;;11.53;52.39;101028.00;4920920;28;98039;-65
2024/02/15 07:36:27;;;;;;;;;;;;;;;11.55;52.43;101030.44;4908009;28;98194;-65
2024/02/15 07:38:54;;;;;;;;;;;;;;;11.58;52.40;101029.94;4911058;28;98158;-70
2024/02/15 07:41:22;;;;;;;;;;;;;;;11.61;52.16;101042.91;4909163;28;99333;-69
2024/02/15 07:43:48;;;;;;;;;;;;;;;11.63;52.15;101031.84;4939203;28;98249;-69
2024/02/15 07:46:16;;;;;;;;;;;;;;;11.68;52.29;101038.09;4922875;28;98233;-68
2024/02/15 07:48:45;;;;;;;;;;;;;;;11.71;52.38;101036.75;4917046;28;100228;-65
2024/02/15 07:51:14;;;;;;;;;;;;;;;11.72;52.29;101039.22;4939400;28;102333;-68
2024/02/15 07:53:42;;;;;;;;;;;;;;;11.74;52.31;101044.34;4922916;28;98359;-69
2024/02/15 07:56:13;;;;;;;;;;;;;;;11.75;52.08;101045.97;4922374;28;98190;-65
2024/02/15 07:58:48;;;;;;;;;;;;;;;11.77;52.35;101049.22;4907299;28;98484;-65
2024/02/15 08:01:14;;;;;;;;;;;;;;;11.79;52.15;101037.09;4927118;28;98283;-65
2024/02/15 08:03:45;;;;;;;;;;;;;;;11.82;52.07;101032.22;4935280;28;97932;-65
2024/02/15 08:06:14;;;;;;;;;;;;;;;11.87;52.01;101025.03;4938682;28;99338;-68
2024/02/15 08:08:48;;;;;;;;;;;;;;;11.96;52.11;101019.94;4922217;28;99574;-68
2024/02/15 08:11:14;;;;;;;;;;;;;;;12.03;52.08;101024.00;4906535;28;98187;-69
2024/02/15 08:13:49;;;;;;;;;;;;;;;12.07;52.15;101016.19;4922115;28;98384;-68
2024/02/15 08:16:22;;;;;;;;;;;;;;;12.21;51.75;101016.50;4927298;28;99442;-68
2024/02/15 08:18:52;;;;;;;;;;;;;;;12.40;51.72;101009.53;4910762;28;98006;-69
2024/02/15 08:21:20;;;;;;;;;;;;;;;12.55;51.73;101010.66;4927541;28;98240;-65
2024/02/15 08:23:47;;;;;;;;;;;;;;;12.69;51.65;101007.19;4912361;28;101228;-69
2024/02/15 08:26:16;;;;;;;;;;;;;;;12.86;51.55;101017.75;4913765;28;98211;-65
2024/02/15 08:28:47;;;;;;;;;;;;;;;13.05;51.51;101015.34;4923799;28;100170;-65
2024/02/15 08:31:16;;;;;;;;;;;;;;;13.17;51.08;101017.78;4923165;28;98353;-65
2024/02/15 08:33:44;;;;;;;;;;;;;;;13.30;51.12;101014.53;4907836;28;98096;-69
2024/02/15 08:36:10;;;;;;;;;;;;;;;13.56;51.12;101014.50;4925230;28;98500;-70
2024/02/15 08:38:37;;;;;;;;;;;;;;;13.74;51.25;101016.63;4908054;28;99721;-69
2024/02/15 08:41:04;;;;;;;;;;;;;;;13.87;50.98;101016.06;4911814;28;98189;-65
2024/02/15 08:43:33;;;;;;;;;;;;;;;14.28;50.61;101015.91;4926820;28;98171;-68
2024/02/15 08:46:00;;;;;;;;;;;;;;;14.77;50.16;101014.28;4905204;28;99234;-69
2024/02/15 08:48:26;;;;;;;;;;;;;;;15.57;49.40;101014.69;4926562;28;98066;-69
2024/02/15 08:50:53;;;;;;;;;;;;;;;16.23;49.04;101007.72;4909651;28;98469;-65
2024/02/15 08:53:19;;;;;;;;;;;;;;;16.08;49.70;101013.34;4919757;28;98041;-69
2024/02/15 08:55:46;;;;;;;;;;;;;;;16.17;49.78;101012.41;4934026;28;98353;-69
2024/02/15 08:58:13;;;;;;;;;;;;;;;16.19;50.15;101025.69;4923787;28;98119;-69
2024/02/15 09:00:44;;;;;;;;;;;;;;;16.12;50.26;101015.19;4937292;28;97904;-69
2024/02/15 09:03:12;;;;;;;;;;;;;;;16.17;50.28;101019.75;4923771;28;98709;-65
2024/02/15 09:05:43;;;;;;;;;;;;;;;16.18;50.46;101024.06;4911102;28;98386;-66
2024/02/15 09:08:09;;;;;;;;;;;;;;;16.09;50.49;101018.47;4939714;28;99999;-69
2024/02/15 09:10:38;;;;;;;;;;;;;;;16.00;50.87;101028.38;4906305;28;98444;-69
2024/02/15 09:13:06;;;;;;;;;;;;;;;15.92;50.86;101024.41;4941333;28;100043;-69
2024/02/15 09:15:33;;;;;;;;;;;;;;;15.85;51.06;101023.13;4917256;28;98197;-66
2024/02/15 09:17:59;;;;;;;;;;;;;;;15.67;51.22;101030.09;4925574;28;98405;-69
2024/02/15 09:20:28;;;;;;;;;;;;;;;15.58;51.34;101034.53;4922776;28;99387;-66
2024/02/15 09:22:54;;;;;;;;;;;;;;;15.51;51.53;101031.31;4907019;28;98051;-69
2024/02/15 09:25:24;;;;;;;;;;;;;;;15.39;51.63;101029.78;4904105;28;98615;-65
2024/02/15 09:27:53;;;;;;;;;;;;;;;15.45;51.33;101025.94;4923959;28;97978;-65
2024/02/15 09:30:19;;;;;;;;;;;;;;;15.57;51.32;101025.56;4911154;28;98892;-69
2024/02/15 09:32:47;;;;;;;;;;;;;;;15.59;51.21;101020.63;4912152;28;100213;-66
2024/02/15 09:35:13;;;;;;;;;;;;;;;15.64;51.32;101019.75;4907198;28;97950;-65
2024/02/15 09:37:45;;;;;;;;;;;;;;;15.75;51.09;101020.50;4909632;28;99841;-65
2024/02/15 09:40:12;;;;;;;;;;;;;;;15.83;51.05;101020.69;4920197;28;98578;-65
2024/02/15 09:42:39;;;;;;;;;;;;;;;15.92;51.08;101018.16;4908658;28;98815;-69
2024/02/15 09:45:12;;;;;;;;;;;;;;;16.06;50.92;101019.06;4908737;28;98181;-69
2024/02/15 09:47:40;;;;;;;;;;;;;;;16.33;50.75;101015.72;4906819;28;98443;-66
2024/02/15 09:50:15;;;;;;;;;;;;;;;16.66;50.47;101018.53;4905016;28;100600;-65
2024/02/15 09:52:44;;;;;;;;;;;;;;;17.13;49.85;101014.00;4925205;28;98282;-69
2024/02/15 09:55:13;;;;;;;;;;;;;;;17.30;50.04;101021.66;4908864;28;98118;-69
2024/02/15 09:57:42;;;;;;;;;;;;;;;17.57;49.90;101026.34;4908249;28;98840;-69
2024/02/15 10:00:13;;;;;;;;;;;;;;;17.42;50.42;101025.50;4905376;28;98617;-69
2024/02/15 10:02:44;;;;;;;;;;;;;;;17.38;50.33;101024.50;4915569;28;98237;-65
2024/02/15 10:05:11;;;;;;;;;;;;;;;17.41;50.52;101009.47;4926925;28;99187;-65
2024/02/15 10:07:39;;;;;;;;;;;;;;;17.37;50.77;101022.88;4922847;28;98687;-65
2024/02/15 10:10:19;;;;;;;;;;;;;;;17.34;50.64;101025.41;4933633;28;98008;-69
2024/02/15 10:12:51;;;;;;;;;;;;;;;17.42;50.75;101020.06;4922504;28;99254;-68
2024/02/15 10:15:36;;;;;;;;;;;;;;;17.62;50.58;101015.34;4910184;28;98150;-65
2024/02/15 10:18:05;;;;;;;;;;;;;;;17.55;51.01;101020.38;4921021;28;98180;-69
2024/02/15 10:20:31;;;;;;;;;;;;;;;17.44;50.98;101027.91;4903402;28;99630;-69
2024/02/15 10:23:00;;;;;;;;;;;;;;;17.34;51.07;101028.13;4904545;28;98281;-65
2024/02/15 10:25:29;;;;;;;;;;;;;;;17.38;50.99;101027.22;4952370;28;98602;-65
2024/02/15 10:28:09;;;;;;;;;;;;;;;17.38;51.06;101021.75;4907409;28;98023;-69
2024/02/15 10:30:45;;;;;;;;;;;;;;;17.25;51.21;101029.88;4916239;28;98093;-69
2024/02/15 10:33:26;;;;;;;;;;;;;;;17.24;51.36;101031.00;4904964;28;98502;-69
2024/02/15 10:36:07;;;;;;;;;;;;;;;17.29;51.20;101036.34;4908327;28;98047;-69
2024/02/15 10:38:38;;;;;;;;;;;;;;;17.41;50.81;101029.34;4921859;28;102272;-66
2024/02/15 10:41:05;;;;;;;;;;;;;;;17.49;51.01;101027.84;4918935;28;98408;-66
2024/02/15 10:43:37;;;;;;;;;;;;;;;17.45;51.15;101026.00;4937044;28;99523;-65
2024/02/15 10:46:04;;;;;;;;;;;;;;;17.31;51.18;101024.06;4936032;28;98199;-65
2024/02/15 10:48:31;;;;;;;;;;;;;;;17.22;51.35;101023.16;4921661;28;98343;-65
2024/02/15 10:51:00;;;;;;;;;;;;;;;17.11;51.68;101014.31;4921032;28;98422;-65
2024/02/15 10:53:33;;;;;;;;;;;;;;;17.10;51.48;101012.72;4920880;28;98383;-65
2024/02/15 10:56:10;;;;;;;;;;;;;;;17.18;51.50;101016.66;4917013;28;98314;-69
2024/02/15 10:58:55;;;;;;;;;;;;;;;17.23;51.33;101016.56;4938752;28;98263;-65
2024/02/15 11:01:22;;;;;;;;;;;;;;;17.27;51.32;101016.78;4908887;28;98471;-69
2024/02/15 11:03:58;;;;;;;;;;;;;;;17.20;51.30;101014.44;4908591;28;98095;-69
2024/02/15 11:06:26;;;;;;;;;;;;;;;17.17;51.49;101018.59;4921874;28;98593;-69
2024/02/15 11:08:53;;;;;;;;;;;;;;;17.13;51.53;101008.56;4935417;28;100364;-66
2024/02/15 11:11:19;;;;;;;;;;;;;;;17.16;51.58;101007.97;4923376;28;101640;-66
2024/02/15 11:13:48;;;;;;;;;;;;;;;17.19;51.38;101001.94;4919821;28;98171;-69
2024/02/15 11:16:40;;;;;;;;;;;;;;;17.27;51.48;100995.00;4906742;28;98240;-69
2024/02/15 11:19:10;;;;;;;;;;;;;;;17.36;51.24;100988.53;4902916;28;98372;-65
2024/02/15 11:21:58;;;;;;;;;;;;;;;17.45;51.04;100994.13;4908755;28;98105;-65
2024/02/15 11:24:28;;;;;;;;;;;;;;;17.49;51.08;100997.03;4928133;28;98090;-69
2024/02/15 11:27:02;;;;;;;;;;;;;;;17.54;51.25;100986.88;4930248;28;98300;-65
2024/02/15 11:30:09;;;;;;;;;;;;;;;17.60;51.30;100988.38;4945627;28;98246;-69
2024/02/15 11:32:44;;;;;;;;;;;;;;;17.73;51.10;100977.81;4906098;28;98337;-69
2024/02/15 11:35:22;;;;;;;;;;;;;;;17.81;50.94;100979.84;4929599;28;98040;-65
2024/02/15 11:37:48;;;;;;;;;;;;;;;17.98;51.04;100976.50;4923419;28;98118;-69
2024/02/15 11:40:17;;;;;;;;;;;;;;;18.42;50.30;100975.00;4938560;28;101000;-66
2024/02/15 11:42:44;;;;;;;;;;;;;;;18.59;50.35;100970.50;4927366;28;98394;-69
2024/02/15 11:45:20;;;;;;;;;;;;;;;18.43;50.80;100977.44;4943496;28;98337;-66
2024/02/15 11:47:53;;;;;;;;;;;;;;;18.36;51.04;100964.22;4940665;28;98316;-65
2024/02/15 11:50:25;;;;;;;;;;;;;;;18.34;51.12;100966.41;4928343;28;98438;-66
2024/02/15 11:52:51;;;;;;;;;;;;;;;18.35;51.15;100961.75;4932008;28;98260;-69
2024/02/15 11:55:23;;;;;;;;;;;;;;;18.51;50.82;100965.78;4910926;28;98435;-65
2024/02/15 11:58:02;;;;;;;;;;;;;;;18.54;50.87;100970.59;4911528;28;99255;-70
2024/02/15 12:19:55;;;;;;;;;;;;;;;18.00;51.73;100956.00;4948191;28;98181;-69
2024/02/15 12:22:28;;;;;;;;;;;;;;;18.00;51.72;100957.91;4919185;28;99773;-69
2024/02/15 12:25:00;;;;;;;;;;;;;;;17.99;51.74;100951.63;4923258;28;98048;-66
2024/02/15 12:27:27;;;;;;;;;;;;;;;18.02;51.70;100951.03;4940091;28;99481;-69
2024/02/15 12:29:57;;;;;;;;;;;;;;;18.03;51.65;100954.56;4902969;28;98481;-65
2024/02/15 12:32:24;;;;;;;;;;;;;;;17.99;51.54;100945.38;4920906;28;98291;-70
2024/02/15 12:34:51;;;;;;;;;;;;;;;17.98;51.53;100949.22;4917671;28;98246;-69
2024/02/15 12:37:23;;;;;;;;;;;;;;;17.96;51.54;100959.63;4910663;28;98172;-66
2024/02/15 12:39:50;;;;;;;;;;;;;;;17.91;51.50;100957.81;4903641;28;97970;-69
2024/02/15 12:42:22;;;;;;;;;;;;;;;17.85;51.86;100950.88;4917525;28;98152;-65
2024/02/15 12:44:49;;;;;;;;;;;;;;;17.87;51.72;100945.91;4923915;28;98541;-65
2024/02/15 12:47:22;;;;;;;;;;;;;;;18.05;51.47;100949.63;4920141;28;99594;-69
2024/02/15 12:49:52;;;;;;;;;;;;;;;18.20;51.33;100941.13;4921971;28;97999;-69
2024/02/15 12:52:35;;;;;;;;;;;;;;;18.22;51.38;100948.97;4905361;28;98190;-69
2024/02/15 12:55:14;;;;;;;;;;;;;;;18.14;51.64;100943.13;4923583;28;98136;-69
2024/02/15 12:57:49;;;;;;;;;;;;;;;18.09;51.79;100943.25;4937171;28;98530;-65
2024/02/15 13:00:21;;;;;;;;;;;;;;;18.01;51.75;100946.69;4940148;28;99580;-65
2024/02/15 13:02:52;;;;;;;;;;;;;;;17.87;51.75;100946.72;4910630;28;98998;-65
2024/02/15 13:05:19;;;;;;;;;;;;;;;17.72;52.09;100949.72;4906396;28;98305;-65
2024/02/15 13:07:46;;;;;;;;;;;;;;;17.59;52.17;100945.88;4936174;28;98892;-71
2024/02/15 13:10:14;;;;;;;;;;;;;;;17.48;52.20;100943.66;4936736;28;98460;-69
2024/02/15 13:12:44;;;;;;;;;;;;;;;17.37;52.34;100943.88;4920348;28;98644;-65
2024/02/15 13:15:14;;;;;;;;;;;;;;;17.29;52.25;100941.84;4921542;28;99188;-69